Time;durP1;ratioP1;P1;durP2;ratioP2;P2;SDS_P1;SDS_P2;PMS_P1;PMS_P2;Temp;Humidity;BMP_temperature;BMP_pressure;BME280_temperature;BME280_humidity;BME280_pressure;Samples;Min_cycle;Max_cycle;Signal;HPM_P1;HPM_P2
2021/01/30 00:00:43;;;;;;;3.00;1.38;;;;;;;4.62;100.00;95636.38;5030984;28;20053;-81
2021/01/30 00:03:12;;;;;;;2.95;1.15;;;;;;;4.75;100.00;95654.09;5030768;28;20061;-82
2021/01/30 00:05:40;;;;;;;3.60;1.38;;;;;;;4.71;100.00;95649.72;5032255;28;20132;-81
2021/01/30 00:08:11;;;;;;;3.63;1.33;;;;;;;4.67;100.00;95630.81;5000960;28;20524;-81
2021/01/30 00:10:38;;;;;;;5.82;1.50;;;;;;;4.67;100.00;95632.75;5007100;28;20053;-82
2021/01/30 00:13:05;;;;;;;3.00;1.30;;;;;;;4.68;100.00;95629.72;5001608;28;20096;-81
2021/01/30 00:15:32;;;;;;;3.92;1.20;;;;;;;4.70;100.00;95630.16;5017336;28;20544;-80
2021/01/30 00:18:00;;;;;;;2.58;1.25;;;;;;;4.72;100.00;95619.16;5016841;28;20049;-81
2021/01/30 00:20:29;;;;;;;2.45;1.10;;;;;;;4.70;100.00;95619.44;4999421;28;20073;-83
2021/01/30 00:22:57;;;;;;;3.53;1.40;;;;;;;4.58;100.00;95629.31;4998584;28;20042;-81
2021/01/30 00:25:27;;;;;;;5.20;1.40;;;;;;;4.49;100.00;95623.25;4996808;28;20045;-82
2021/01/30 00:27:55;;;;;;;8.02;2.05;;;;;;;4.37;100.00;95615.91;5018774;28;20398;-82
2021/01/30 00:30:23;;;;;;;6.13;1.77;;;;;;;4.37;100.00;95621.25;5019058;28;20045;-82
2021/01/30 00:32:51;;;;;;;5.03;1.85;;;;;;;4.34;100.00;95617.31;5001119;28;20117;-82
2021/01/30 00:35:24;;;;;;;4.68;1.60;;;;;;;4.29;100.00;95617.50;5000360;28;20279;-80
2021/01/30 00:37:50;;;;;;;3.50;1.30;;;;;;;4.32;100.00;95618.75;4997719;28;20090;-80
2021/01/30 00:40:19;;;;;;;3.95;1.63;;;;;;;4.34;100.00;95601.25;5053579;23;20189;-80
2021/01/30 00:42:45;;;;;;;3.53;1.60;;;;;;;4.46;100.00;95603.25;5028993;28;20068;-80
2021/01/30 00:45:14;;;;;;;6.55;1.85;;;;;;;4.46;100.00;95600.56;5028751;28;20060;-79
2021/01/30 00:47:41;;;;;;;5.78;2.13;;;;;;;4.45;100.00;95596.31;5030557;28;20049;-79
2021/01/30 00:50:08;;;;;;;3.72;1.85;;;;;;;4.40;100.00;95591.94;5014907;28;20500;-80
2021/01/30 00:52:35;;;;;;;6.03;1.83;;;;;;;4.46;100.00;95597.88;5031660;28;20076;-79
2021/01/30 00:55:01;;;;;;;7.60;1.80;;;;;;;4.47;100.00;95606.69;5049360;22;20053;-78
2021/01/30 00:57:27;;;;;;;3.22;1.70;;;;;;;4.55;100.00;95597.81;5015885;28;20489;-79
2021/01/30 00:59:53;;;;;;;7.50;1.50;;;;;;;4.53;100.00;95595.47;5016768;28;20041;-80
2021/01/30 01:02:19;;;;;;;3.53;1.70;;;;;;;4.48;100.00;95582.28;5014728;28;20052;-81
2021/01/30 01:04:46;;;;;;;5.82;1.60;;;;;;;4.54;100.00;95583.66;5033710;28;20046;-79
2021/01/30 01:07:15;;;;;;;6.15;1.70;;;;;;;4.48;100.00;95584.94;4996679;28;20077;-81
2021/01/30 01:09:41;;;;;;;8.10;1.73;;;;;;;4.44;100.00;95585.94;5019965;28;20045;-79
2021/01/30 01:12:08;;;;;;;2.92;1.45;;;;;;;4.48;100.00;95587.63;4984163;28;20056;-80
2021/01/30 01:14:34;;;;;;;3.17;1.60;;;;;;;4.50;100.00;95571.22;5020098;28;20041;-79
2021/01/30 01:17:01;;;;;;;5.55;1.80;;;;;;;4.52;100.00;95575.13;4999806;28;20050;-79
2021/01/30 01:19:28;;;;;;;4.50;1.60;;;;;;;4.58;100.00;95570.38;5000406;28;20413;-82
2021/01/30 01:21:54;;;;;;;6.40;1.48;;;;;;;4.59;100.00;95575.44;4983131;28;20409;-80
2021/01/30 01:24:21;;;;;;;4.88;1.50;;;;;;;4.51;100.00;95573.59;4982811;28;20045;-80
2021/01/30 01:26:49;;;;;;;5.00;1.27;;;;;;;4.51;100.00;95581.63;4997612;28;20045;-79
2021/01/30 01:29:19;;;;;;;4.45;1.20;;;;;;;4.57;100.00;95572.25;4996831;28;20045;-80
2021/01/30 01:31:51;;;;;;;2.95;1.38;;;;;;;4.59;100.00;95574.63;5019220;28;20046;-80
2021/01/30 01:34:21;;;;;;;4.72;1.33;;;;;;;4.60;100.00;95582.34;5020171;28;20048;-80
2021/01/30 01:37:01;;;;;;;4.07;1.40;;;;;;;4.61;100.00;95573.19;4986186;28;20046;-80
2021/01/30 01:39:31;;;;;;;3.67;1.45;;;;;;;4.69;100.00;95574.25;5001384;28;20210;-80
2021/01/30 01:42:19;;;;;;;3.03;0.98;;;;;;;4.77;100.00;95563.47;5018087;28;20472;-82
2021/01/30 01:44:47;;;;;;;3.60;1.50;;;;;;;4.84;100.00;95569.06;5017048;28;20040;-80
2021/01/30 01:47:37;;;;;;;2.25;1.40;;;;;;;4.75;100.00;95571.03;5014850;28;20478;-80
2021/01/30 01:50:14;;;;;;;3.20;1.25;;;;;;;4.84;100.00;95566.38;4987271;28;20061;-79
2021/01/30 01:52:41;;;;;;;2.30;1.40;;;;;;;4.86;100.00;95576.75;5021878;28;20124;-82
2021/01/30 01:55:13;;;;;;;3.88;1.48;;;;;;;4.83;100.00;95570.16;5017466;28;20121;-80
2021/01/30 01:57:47;;;;;;;5.90;1.40;;;;;;;4.83;100.00;95562.13;5000084;28;20046;-80
2021/01/30 02:00:15;;;;;;;3.65;1.70;;;;;;;4.82;100.00;95565.16;5017208;28;20045;-80
2021/01/30 02:02:41;;;;;;;3.65;1.77;;;;;;;4.78;100.00;95577.63;5014853;28;20125;-79
2021/01/30 02:05:10;;;;;;;3.78;1.65;;;;;;;4.70;100.00;95587.28;5017098;28;20034;-79
2021/01/30 02:07:44;;;;;;;3.38;1.70;;;;;;;4.73;100.00;95588.53;4999216;28;20049;-81
2021/01/30 02:10:14;;;;;;;3.00;1.42;;;;;;;4.67;100.00;95589.88;4999911;28;20054;-80
2021/01/30 02:12:43;;;;;;;2.80;1.58;;;;;;;4.66;100.00;95594.44;4983363;28;20052;-82
2021/01/30 02:15:14;;;;;;;3.13;1.70;;;;;;;4.59;100.00;95593.38;4983321;28;20100;-80
2021/01/30 02:17:48;;;;;;;2.75;1.48;;;;;;;4.48;100.00;95586.84;5017920;28;20070;-80
2021/01/30 02:20:52;;;;;;;3.70;1.50;;;;;;;4.46;100.00;95591.75;5000064;28;20046;-81
2021/01/30 02:23:39;;;;;;;6.25;1.90;;;;;;;4.42;100.00;95610.34;5017248;28;20121;-80
2021/01/30 02:26:27;;;;;;;3.58;1.40;;;;;;;4.44;100.00;95608.13;4999752;28;20038;-80
2021/01/30 02:29:29;;;;;;;5.97;2.08;;;;;;;4.33;100.00;95601.59;5001690;28;20473;-81
2021/01/30 02:32:21;;;;;;;4.43;1.75;;;;;;;4.33;100.00;95628.38;5017583;28;20045;-80
2021/01/30 02:34:58;;;;;;;3.80;1.80;;;;;;;4.28;100.00;95625.88;5017773;28;20474;-80
2021/01/30 02:37:50;;;;;;;3.53;1.75;;;;;;;4.20;100.00;95627.50;5002159;28;20401;-80
2021/01/30 02:40:20;;;;;;;6.57;2.10;;;;;;;4.17;100.00;95633.50;5021580;28;20049;-80
2021/01/30 02:42:54;;;;;;;4.82;2.15;;;;;;;4.17;100.00;95635.38;5009565;28;20045;-82
2021/01/30 02:45:25;;;;;;;8.95;2.60;;;;;;;4.09;100.00;95646.91;5004084;28;20053;-82
2021/01/30 02:48:11;;;;;;;6.47;2.55;;;;;;;4.07;100.00;95649.94;5019991;28;20046;-82
2021/01/30 02:50:47;;;;;;;4.95;2.65;;;;;;;4.07;100.00;95641.09;5001972;28;20450;-80
2021/01/30 02:53:17;;;;;;;4.93;2.45;;;;;;;4.10;100.00;95648.50;5000538;28;20489;-81
2021/01/30 02:55:46;;;;;;;10.43;2.88;;;;;;;4.02;100.00;95647.44;5002759;28;20042;-80
2021/01/30 02:58:13;;;;;;;5.55;2.13;;;;;;;4.13;100.00;95643.25;5000248;28;20053;-80
2021/01/30 03:00:41;;;;;;;5.60;2.17;;;;;;;4.23;100.00;95634.88;5017809;28;20060;-80
2021/01/30 03:03:07;;;;;;;3.80;2.22;;;;;;;4.24;100.00;95632.97;4998753;28;20053;-82
2021/01/30 03:05:33;;;;;;;3.45;2.03;;;;;;;4.25;100.00;95630.00;4999458;28;20045;-81
2021/01/30 03:08:28;;;;;;;3.90;2.17;;;;;;;4.26;100.00;95634.22;4984003;28;20046;-81
2021/01/30 03:11:07;;;;;;;5.10;2.45;;;;;;;4.24;100.00;95639.13;5017504;28;20057;-80
2021/01/30 03:13:52;;;;;;;5.05;2.17;;;;;;;4.28;100.00;95628.56;4998729;28;20516;-81
2021/01/30 03:16:23;;;;;;;4.90;2.47;;;;;;;4.27;100.00;95646.50;5000514;28;20062;-81
2021/01/30 03:19:04;;;;;;;4.90;2.20;;;;;;;4.30;100.00;95632.47;5016521;28;20041;-81
2021/01/30 03:21:31;;;;;;;4.75;2.30;;;;;;;4.19;100.00;95631.28;5002691;28;20050;-82
2021/01/30 03:24:01;;;;;;;3.97;2.22;;;;;;;4.23;100.00;95637.53;5001457;28;20068;-81
2021/01/30 03:26:28;;;;;;;5.90;2.55;;;;;;;4.28;100.00;95636.59;5016617;28;20042;-80
2021/01/30 03:28:55;;;;;;;5.20;2.13;;;;;;;4.24;100.00;95633.75;5017827;28;20044;-82
2021/01/30 03:31:22;;;;;;;4.55;2.40;;;;;;;4.16;100.00;95636.47;5017603;28;20508;-80
2021/01/30 03:33:50;;;;;;;3.72;2.10;;;;;;;4.20;100.00;95650.81;5015516;28;20264;-79
2021/01/30 03:36:18;;;;;;;4.80;2.75;;;;;;;4.22;100.00;95644.03;4990291;28;20065;-80
2021/01/30 03:38:44;;;;;;;3.47;2.33;;;;;;;4.27;100.00;95651.88;5001709;28;20049;-80
2021/01/30 03:41:11;;;;;;;5.63;2.30;;;;;;;4.21;100.00;95647.78;5018837;28;20081;-80
2021/01/30 03:43:37;;;;;;;6.03;2.80;;;;;;;4.20;100.00;95646.25;5014426;28;20504;-79
2021/01/30 03:46:03;;;;;;;5.78;2.70;;;;;;;4.21;100.00;95655.81;4998074;28;20048;-79
2021/01/30 03:48:30;;;;;;;6.10;2.70;;;;;;;4.24;100.00;95660.53;4998365;28;20048;-81
2021/01/30 03:50:56;;;;;;;7.25;3.03;;;;;;;4.20;100.00;95658.84;5014411;28;20054;-80
2021/01/30 03:53:22;;;;;;;7.13;3.47;;;;;;;4.15;100.00;95657.13;4998289;28;20528;-79
2021/01/30 03:55:48;;;;;;;5.45;3.15;;;;;;;4.12;100.00;95697.13;4999150;28;20038;-80
2021/01/30 03:58:15;;;;;;;13.50;6.03;;;;;;;3.41;100.00;95718.22;4998598;28;20050;-80
2021/01/30 04:00:41;;;;;;;11.00;5.80;;;;;;;2.94;100.00;95708.47;5019132;28;20054;-79
2021/01/30 04:03:07;;;;;;;13.05;7.32;;;;;;;2.59;100.00;95720.19;4982789;28;20057;-81
2021/01/30 04:05:33;;;;;;;13.45;7.47;;;;;;;2.35;100.00;95725.91;4998725;28;20108;-80
2021/01/30 04:08:03;;;;;;;11.60;6.75;;;;;;;2.08;100.00;95747.47;5000125;28;20038;-81
2021/01/30 04:10:31;;;;;;;17.13;8.43;;;;;;;1.70;100.00;95761.22;5015066;28;20534;-80
2021/01/30 04:13:02;;;;;;;18.95;10.00;;;;;;;1.36;100.00;95757.53;5019262;28;20534;-80
2021/01/30 04:15:36;;;;;;;21.48;11.00;;;;;;;1.23;100.00;95773.28;4978165;28;20045;-79
2021/01/30 04:18:03;;;;;;;18.50;9.95;;;;;;;1.12;100.00;95777.25;5022587;28;20052;-82
2021/01/30 04:20:29;;;;;;;16.80;9.98;;;;;;;1.05;100.00;95782.22;5002033;28;20125;-80
2021/01/30 04:22:57;;;;;;;17.60;9.65;;;;;;;0.94;100.00;95801.34;4998360;28;20050;-80
2021/01/30 04:25:25;;;;;;;17.05;9.30;;;;;;;0.78;100.00;95816.06;4997568;28;20034;-81
2021/01/30 04:27:52;;;;;;;14.80;8.20;;;;;;;0.57;100.00;95805.03;4997688;28;20528;-79
2021/01/30 04:30:22;;;;;;;13.65;7.13;;;;;;;0.42;100.00;95800.00;5013774;28;20061;-81
2021/01/30 04:32:48;;;;;;;13.50;7.22;;;;;;;0.17;100.00;95814.56;4997876;28;20052;-81
2021/01/30 04:35:19;;;;;;;14.75;8.20;;;;;;;0.11;100.00;95825.56;5014657;28;20043;-81
2021/01/30 04:37:45;;;;;;;17.02;8.70;;;;;;;-0.03;100.00;95828.22;5014816;28;20038;-80
2021/01/30 04:40:22;;;;;;;18.98;9.95;;;;;;;0.00;100.00;95839.03;4996392;28;20241;-80
2021/01/30 04:43:01;;;;;;;19.55;11.10;;;;;;;0.04;100.00;95841.13;4995964;28;20049;-81
2021/01/30 04:45:42;;;;;;;23.05;11.93;;;;;;;-0.10;100.00;95846.41;5013599;28;20204;-81
2021/01/30 04:48:30;;;;;;;20.73;11.77;;;;;;;-0.18;100.00;95847.84;5013221;28;20042;-81
2021/01/30 04:51:08;;;;;;;21.98;12.45;;;;;;;-0.26;100.00;95851.16;4995849;28;20382;-80
2021/01/30 04:54:02;;;;;;;27.67;13.20;;;;;;;-0.27;100.00;95865.56;4994301;28;20485;-80
2021/01/30 04:56:58;;;;;;;22.90;12.20;;;;;;;-0.36;100.00;95867.28;4995233;28;20048;-81
2021/01/30 04:59:33;;;;;;;24.00;12.73;;;;;;;-0.40;100.00;95878.78;4978906;28;20052;-81
2021/01/30 05:02:09;;;;;;;28.33;14.70;;;;;;;-0.52;100.00;95867.78;4978984;28;20056;-80
2021/01/30 05:04:41;;;;;;;30.00;15.75;;;;;;;-0.59;100.00;95881.41;4980299;28;20049;-81
2021/01/30 05:07:28;;;;;;;29.23;16.38;;;;;;;-0.63;100.00;95901.69;4999998;28;20048;-82
2021/01/30 05:10:37;;;;;;;35.63;18.63;;;;;;;-0.65;100.00;95901.19;5000201;28;20044;-81
2021/01/30 05:13:10;;;;;;;34.88;18.20;;;;;;;-0.67;100.00;95903.31;4968021;28;20108;-81
2021/01/30 05:15:48;;;;;;;33.83;17.83;;;;;;;-0.75;100.00;95920.69;4999797;28;20045;-81
2021/01/30 05:18:23;;;;;;;30.20;16.40;;;;;;;-0.70;100.00;95927.81;5000558;28;20049;-80
2021/01/30 05:20:57;;;;;;;27.33;15.87;;;;;;;-0.71;100.00;95921.69;5017299;28;20572;-82
2021/01/30 05:23:24;;;;;;;25.98;14.25;;;;;;;-0.74;100.00;95938.22;4999102;28;20056;-80
2021/01/30 05:25:58;;;;;;;19.60;10.80;;;;;;;-0.81;100.00;95927.16;5016611;28;20432;-81
2021/01/30 05:28:29;;;;;;;19.25;10.68;;;;;;;-0.93;100.00;95953.28;5001265;28;20465;-81
2021/01/30 05:31:02;;;;;;;16.58;9.93;;;;;;;-1.17;100.00;95960.47;5016594;28;20081;-81
2021/01/30 05:33:59;;;;;;;19.48;10.73;;;;;;;-1.14;100.00;95961.78;5017656;28;20046;-81
2021/01/30 05:36:34;;;;;;;25.80;13.95;;;;;;;-1.23;100.00;95963.44;5017479;28;20311;-82
2021/01/30 05:39:00;;;;;;;;;;;;;;;-1.27;100.00;95973.84;5000674;28;20072;-81
2021/01/30 05:41:52;;;;;;;26.92;14.15;;;;;;;-1.29;100.00;95983.97;4998753;28;20240;-82
2021/01/30 05:44:27;;;;;;;25.95;13.43;;;;;;;-1.45;100.00;95999.22;4999048;28;20042;-81
2021/01/30 05:46:55;;;;;;;26.40;13.00;;;;;;;-1.46;100.00;95989.69;4998177;28;20105;-83
2021/01/30 05:49:28;;;;;;;31.98;15.38;;;;;;;-1.43;100.00;96002.38;5016665;28;20078;-82
2021/01/30 05:52:04;;;;;;;38.38;18.55;;;;;;;-1.46;100.00;96015.41;4983651;28;20054;-82
2021/01/30 05:54:30;;;;;;;40.83;19.45;;;;;;;-1.63;100.00;96018.47;5000112;28;20049;-82
2021/01/30 05:56:56;;;;;;;42.13;20.73;;;;;;;-1.66;100.00;96016.38;4999782;28;20159;-82
2021/01/30 05:59:32;;;;;;;50.25;23.15;;;;;;;-1.69;100.00;96038.13;4999566;28;20049;-83
2021/01/30 06:02:12;;;;;;;;;;;;;;;-1.72;100.00;96046.66;5000035;28;20056;-82
2021/01/30 06:04:39;;;;;;;44.17;21.80;;;;;;;-1.66;100.00;96061.47;4982911;28;19921;-83
2021/01/30 06:07:22;;;;;;;47.58;22.60;;;;;;;-1.76;100.00;96063.38;5016569;28;20049;-83
2021/01/30 06:09:50;;;;;;;48.05;22.92;;;;;;;-1.65;100.00;96073.66;4983176;28;20069;-83
2021/01/30 06:12:22;;;;;;;49.70;24.50;;;;;;;-1.80;100.00;96083.56;4999137;28;20046;-84
2021/01/30 06:14:49;;;;;;;51.67;24.48;;;;;;;-1.77;100.00;96086.47;4999005;28;20044;-82
2021/01/30 06:17:24;;;;;;;44.70;21.90;;;;;;;-1.70;100.00;96092.25;4999775;28;20046;-84
2021/01/30 06:20:09;;;;;;;46.08;22.15;;;;;;;-1.78;100.00;96098.13;5003285;28;20045;-84
2021/01/30 06:22:36;;;;;;;34.00;16.45;;;;;;;-1.78;100.00;96094.69;5002318;28;20144;-82
2021/01/30 06:25:25;;;;;;;40.25;18.33;;;;;;;-1.82;100.00;96091.00;5019645;28;20045;-82
2021/01/30 06:27:56;;;;;;;43.75;19.55;;;;;;;-1.83;100.00;96106.09;5018400;28;20042;-83
2021/01/30 06:30:44;;;;;;;40.13;19.83;;;;;;;-1.81;100.00;96106.66;5008136;28;20046;-82
2021/01/30 06:33:29;;;;;;;41.80;19.00;;;;;;;-1.85;100.00;96118.84;4988813;28;20061;-81
2021/01/30 06:36:09;;;;;;;41.60;19.95;;;;;;;-1.75;100.00;96116.16;5005287;28;20119;-83
2021/01/30 06:38:42;;;;;;;39.65;19.02;;;;;;;-1.81;100.00;96130.50;5021021;28;20494;-82
2021/01/30 06:41:27;;;;;;;45.22;20.15;;;;;;;-1.88;100.00;96124.69;5028089;28;20168;-81
2021/01/30 06:44:19;;;;;;;47.10;20.25;;;;;;;-1.93;100.00;96154.69;5002466;28;20042;-81
2021/01/30 06:47:11;;;;;;;38.15;17.35;;;;;;;-2.05;100.00;96161.38;5002201;28;20053;-81
2021/01/30 06:49:49;;;;;;;35.83;17.23;;;;;;;-2.03;100.00;96159.22;5000407;28;20049;-84
2021/01/30 06:52:18;;;;;;;33.13;16.50;;;;;;;-1.99;100.00;96184.16;4983383;28;20309;-84
2021/01/30 06:54:44;;;;;;;29.63;14.63;;;;;;;-2.01;100.00;96181.75;5028627;23;20040;-80
2021/01/30 06:57:11;;;;;;;29.42;13.48;;;;;;;-2.05;100.00;96186.03;5045341;28;20452;-78
2021/01/30 06:59:51;;;;;;;26.15;13.30;;;;;;;-2.05;100.00;96187.88;5043589;28;20072;-80
2021/01/30 07:02:29;;;;;;;23.63;11.73;;;;;;;-2.06;100.00;96212.78;5063322;28;20041;-78
2021/01/30 07:05:16;;;;;;;23.35;11.23;;;;;;;-2.08;100.00;96209.63;5064249;28;20499;-82
2021/01/30 07:08:07;;;;;;;22.85;10.50;;;;;;;-2.08;100.00;96223.66;5061848;28;20045;-80
2021/01/30 07:11:16;;;;;;;21.23;10.20;;;;;;;-2.02;100.00;96229.75;5059555;28;20059;-78
2021/01/30 07:13:59;;;;;;;18.17;9.13;;;;;;;-2.04;100.00;96242.50;5073981;28;20044;-78
2021/01/30 07:17:00;;;;;;;20.35;9.95;;;;;;;-2.02;100.00;96233.22;5049359;28;20143;-80
2021/01/30 07:20:08;;;;;;;16.88;8.75;;;;;;;-1.89;100.00;96226.53;5044057;28;20117;-80
2021/01/30 07:22:45;;;;;;;19.50;8.48;;;;;;;-1.93;100.00;96222.81;5042756;28;20064;-79
2021/01/30 07:25:20;;;;;;;20.88;10.65;;;;;;;-2.11;100.00;96191.59;5022738;28;20055;-81
2021/01/30 07:27:52;;;;;;;17.17;8.77;;;;;;;-2.02;100.00;96213.84;5039770;28;20059;-79
2021/01/30 07:30:43;;;;;;;18.35;9.07;;;;;;;-1.93;100.00;96238.72;5041132;28;20049;-81
2021/01/30 07:33:15;;;;;;;18.60;9.43;;;;;;;-1.97;100.00;96243.00;5017513;28;20072;-82
2021/01/30 07:35:58;;;;;;;19.38;9.63;;;;;;;-1.93;100.00;96223.63;5035991;28;20040;-80
2021/01/30 07:38:37;;;;;;;19.05;8.40;;;;;;;-2.05;100.00;96262.91;5035404;28;20585;-76
2021/01/30 07:41:42;;;;;;;15.25;7.45;;;;;;;-2.02;100.00;96270.31;5018651;28;20551;-79
2021/01/30 07:44:22;;;;;;;14.57;7.97;;;;;;;-2.03;100.00;96274.03;5046476;28;20044;-79
2021/01/30 07:47:01;;;;;;;16.98;8.55;;;;;;;-1.97;100.00;96280.09;5034936;28;20284;-79
2021/01/30 07:49:32;;;;;;;16.05;7.90;;;;;;;-2.02;100.00;96261.56;5034629;28;20377;-81
2021/01/30 07:52:03;;;;;;;13.50;6.95;;;;;;;-2.08;100.00;96275.88;5057773;28;20413;-81
2021/01/30 07:54:30;;;;;;;16.42;8.02;;;;;;;-1.92;100.00;96290.69;5047675;28;20033;-80
2021/01/30 07:57:15;;;;;;;12.43;5.78;;;;;;;-1.92;100.00;96291.50;5058311;28;20045;-83
2021/01/30 07:59:55;;;;;;;13.25;5.60;;;;;;;-1.93;100.00;96287.25;5054754;28;20052;-80
2021/01/30 08:02:41;;;;;;;14.57;6.78;;;;;;;-1.83;100.00;96281.13;5039081;28;20059;-81
2021/01/30 08:05:28;;;;;;;11.93;6.70;;;;;;;-1.91;100.00;96279.03;5043243;28;20415;-81
2021/01/30 08:08:02;;;;;;;15.68;7.35;;;;;;;-1.73;100.00;96278.44;5039164;28;20048;-81
2021/01/30 08:10:56;;;;;;;12.50;6.95;;;;;;;-1.72;100.00;96273.94;5060158;28;20049;-82
2021/01/30 08:13:34;;;;;;;16.30;8.13;;;;;;;-1.70;100.00;96290.41;5059193;28;20047;-80
2021/01/30 08:16:35;;;;;;;16.00;7.68;;;;;;;-1.58;100.00;96275.75;5057664;28;20068;-81
2021/01/30 08:19:06;;;;;;;16.02;8.90;;;;;;;-1.68;100.00;96283.75;5040249;28;20060;-77
2021/01/30 08:21:40;;;;;;;16.92;9.27;;;;;;;-1.73;100.00;96285.63;5052610;28;20060;-78
2021/01/30 08:24:20;;;;;;;18.38;9.98;;;;;;;-1.83;100.00;96291.72;5010843;28;20433;-80
2021/01/30 08:27:01;;;;;;;20.95;11.18;;;;;;;-1.71;100.00;96294.91;5019278;28;20076;-80
2021/01/30 08:29:49;;;;;;;20.38;10.73;;;;;;;-1.60;100.00;96301.75;5017233;28;20049;-81
2021/01/30 08:32:24;;;;;;;20.67;11.20;;;;;;;-1.66;100.00;96310.81;5035243;28;20152;-83
2021/01/30 08:34:55;;;;;;;23.58;12.27;;;;;;;-1.43;100.00;96310.19;5034027;28;20044;-81
2021/01/30 08:37:24;;;;;;;24.65;12.40;;;;;;;-1.47;100.00;96306.47;5033429;28;20230;-81
2021/01/30 08:40:07;;;;;;;23.90;13.10;;;;;;;-1.47;100.00;96311.00;5033752;28;20041;-82
2021/01/30 08:42:53;;;;;;;25.00;14.10;;;;;;;-1.49;100.00;96329.84;5033931;28;20049;-82
2021/01/30 08:45:25;;;;;;;25.95;13.15;;;;;;;-1.59;100.00;96329.88;5039872;28;20525;-81
2021/01/30 08:47:54;;;;;;;24.10;12.60;;;;;;;-1.61;100.00;96325.91;5038773;28;20045;-83
2021/01/30 08:50:44;;;;;;;22.80;12.57;;;;;;;-1.64;100.00;96321.94;5024238;28;20045;-80
2021/01/30 08:53:22;;;;;;;24.65;13.65;;;;;;;-1.68;100.00;96323.53;5052939;28;20435;-81
2021/01/30 08:56:01;;;;;;;26.10;14.55;;;;;;;-1.68;100.00;96323.53;5058011;28;20431;-80
2021/01/30 08:58:45;;;;;;;28.55;15.38;;;;;;;-1.64;100.00;96329.88;5057427;28;20049;-80
2021/01/30 09:01:20;;;;;;;30.45;15.30;;;;;;;-1.65;100.00;96320.31;5058885;28;20045;-83
2021/01/30 09:03:57;;;;;;;;;;;;;;;-1.52;100.00;96326.91;5040352;28;20045;-79
2021/01/30 09:06:38;;;;;;;30.75;15.52;;;;;;;-1.52;100.00;96324.25;5057140;28;20207;-82
2021/01/30 09:09:06;;;;;;;28.52;15.00;;;;;;;-1.62;100.00;96324.31;5058629;28;20044;-81
2021/01/30 09:11:46;;;;;;;25.77;13.93;;;;;;;-1.68;100.00;96330.69;5040288;28;20075;-81
2021/01/30 09:14:18;;;;;;;23.98;12.60;;;;;;;-1.61;100.00;96325.91;5061905;28;20045;-81
2021/01/30 09:16:57;;;;;;;22.95;11.43;;;;;;;-1.56;100.00;96333.84;5040303;28;20049;-80
2021/01/30 09:19:32;;;;;;;19.92;10.65;;;;;;;-1.40;100.00;96330.09;5057774;28;20048;-83
2021/01/30 09:22:17;;;;;;;17.58;9.70;;;;;;;-1.24;100.00;96328.16;5040690;28;20061;-81
2021/01/30 09:25:09;;;;;;;18.20;9.50;;;;;;;-1.34;100.00;96321.03;5058214;28;20114;-82
2021/01/30 09:28:01;;;;;;;19.95;10.48;;;;;;;-1.39;100.00;96319.19;5055746;28;20041;-82
2021/01/30 09:30:36;;;;;;;19.90;9.93;;;;;;;-1.41;100.00;96328.50;5024230;28;20064;-82
2021/01/30 09:33:11;;;;;;;21.45;9.85;;;;;;;-1.27;100.00;96318.91;5039604;28;20071;-83
2021/01/30 09:35:44;;;;;;;21.45;11.10;;;;;;;-1.29;100.00;96326.34;5058422;28;20033;-81
2021/01/30 09:38:24;;;;;;;19.20;10.60;;;;;;;-1.40;100.00;96330.09;5040975;28;20051;-82
2021/01/30 09:41:05;;;;;;;18.27;10.23;;;;;;;-1.49;100.00;96335.16;5059233;28;20037;-81
2021/01/30 09:43:31;;;;;;;20.48;11.13;;;;;;;-1.45;100.00;96332.75;5040794;28;20099;-80
2021/01/30 09:45:57;;;;;;;24.35;12.70;;;;;;;-1.36;100.00;96339.88;5039459;28;20045;-81
2021/01/30 09:48:24;;;;;;;23.17;12.68;;;;;;;-1.04;100.00;96350.13;5059082;28;20200;-82
2021/01/30 09:50:57;;;;;;;26.05;12.77;;;;;;;-0.80;100.00;96353.69;5069005;28;20109;-78
2021/01/30 09:53:31;;;;;;;23.88;13.02;;;;;;;-1.08;100.00;96351.72;5054276;28;20477;-78
2021/01/30 09:56:05;;;;;;;24.00;13.45;;;;;;;-1.21;100.00;96360.25;5023740;28;20106;-80
2021/01/30 09:58:32;;;;;;;22.48;12.20;;;;;;;-1.19;100.00;96363.47;5043594;28;20048;-79
2021/01/30 10:01:20;;;;;;;24.73;12.85;;;;;;;-1.20;100.00;96364.50;5043591;28;20056;-82
2021/01/30 10:03:46;;;;;;;28.17;14.18;;;;;;;-1.05;100.00;96366.31;5026589;28;20112;-81
2021/01/30 10:06:24;;;;;;;24.15;12.95;;;;;;;-1.01;100.00;96365.50;5028921;28;20300;-82
2021/01/30 10:08:50;;;;;;;27.63;13.50;;;;;;;-1.09;100.00;96358.09;5040384;28;20041;-84
2021/01/30 10:11:20;;;;;;;26.48;13.38;;;;;;;-1.06;100.00;96359.44;5044743;28;20439;-82
2021/01/30 10:13:58;;;;;;;26.48;14.20;;;;;;;-1.30;100.00;96370.66;5040485;28;20102;-83
2021/01/30 10:16:26;;;;;;;29.70;15.48;;;;;;;-1.29;100.00;96363.50;5040488;28;20045;-81
2021/01/30 10:19:12;;;;;;;29.17;14.50;;;;;;;-1.23;100.00;96367.72;5063864;28;20076;-80
2021/01/30 10:21:41;;;;;;;26.45;13.45;;;;;;;-1.34;100.00;96374.09;5063478;28;20522;-82
2021/01/30 10:24:21;;;;;;;26.83;13.43;;;;;;;-1.38;100.00;96373.06;5045478;28;20037;-81
2021/01/30 10:26:52;;;;;;;34.20;15.20;;;;;;;-1.40;100.00;96380.50;5059021;28;20041;-81
2021/01/30 10:29:22;;;;;;;24.83;13.05;;;;;;;-1.35;100.00;96378.63;5058119;28;20047;-79
2021/01/30 10:32:01;;;;;;;29.20;14.60;;;;;;;-1.23;100.00;96377.53;5063692;28;20035;-84
2021/01/30 10:34:35;;;;;;;26.23;12.73;;;;;;;-1.40;100.00;96375.19;5058713;28;20079;-79
2021/01/30 10:37:14;;;;;;;25.23;13.23;;;;;;;-1.24;100.00;96381.25;5038259;28;20591;-79
2021/01/30 10:39:58;;;;;;;25.40;12.70;;;;;;;-1.12;100.00;96377.22;5017641;28;20046;-79
2021/01/30 10:42:28;;;;;;;21.15;11.60;;;;;;;-1.03;100.00;96380.13;5018741;28;20050;-80
2021/01/30 10:45:03;;;;;;;22.17;11.43;;;;;;;-0.96;100.00;96386.72;5036410;28;20064;-79
2021/01/30 10:47:29;;;;;;;25.15;12.77;;;;;;;-0.86;100.00;96383.22;5050207;28;20037;-82
2021/01/30 10:50:19;;;;;;;23.00;12.63;;;;;;;-0.72;100.00;96395.63;5038715;28;20512;-78
2021/01/30 10:52:45;;;;;;;23.25;11.98;;;;;;;-0.71;100.00;96383.16;5020364;28;20058;-82
2021/01/30 10:55:28;;;;;;;22.65;11.65;;;;;;;-0.71;100.00;96383.94;5054451;28;20060;-79
2021/01/30 10:58:14;;;;;;;19.08;11.30;;;;;;;-0.62;100.00;96376.97;5058526;28;20060;-79
2021/01/30 11:00:40;;;;;;;20.92;10.75;;;;;;;-0.32;100.00;96383.19;5041080;28;20060;-81
2021/01/30 11:03:21;;;;;;;19.02;10.57;;;;;;;-0.26;100.00;96372.22;5056796;28;20048;-80
2021/01/30 11:05:47;;;;;;;20.20;10.98;;;;;;;-0.23;100.00;96376.19;5049346;28;20508;-80
2021/01/30 11:08:24;;;;;;;20.58;10.05;;;;;;;-0.41;100.00;96372.34;5031235;28;20056;-80
2021/01/30 11:11:00;;;;;;;20.65;9.93;;;;;;;-0.58;100.00;96376.44;5021769;28;20045;-81
2021/01/30 11:13:34;;;;;;;15.82;9.65;;;;;;;-0.38;100.00;96363.00;5040142;28;20053;-80
2021/01/30 11:16:20;;;;;;;19.23;10.27;;;;;;;-0.31;100.00;96364.28;5008256;28;20048;-80
2021/01/30 11:18:48;;;;;;;19.13;10.77;;;;;;;-0.30;100.00;96363.22;5041095;28;20075;-78
2021/01/30 11:21:37;;;;;;;23.33;11.55;;;;;;;-0.20;100.00;96360.50;5042086;28;20049;-79
2021/01/30 11:24:17;;;;;;;20.05;10.63;;;;;;;-0.20;100.00;96352.53;5040909;28;20041;-80
2021/01/30 11:26:44;;;;;;;21.98;10.50;;;;;;;-0.30;100.00;96341.97;5040523;28;20124;-79
2021/01/30 11:29:41;;;;;;;19.92;10.32;;;;;;;0.00;100.00;96360.31;5040864;28;20045;-79
2021/01/30 11:32:11;;;;;;;20.85;10.88;;;;;;;0.02;100.00;96354.75;5051120;28;20047;-78
2021/01/30 11:34:39;;;;;;;18.27;9.50;;;;;;;0.19;100.00;96362.31;5029813;28;20120;-80
2021/01/30 11:37:07;;;;;;;21.33;9.63;;;;;;;0.32;100.00;96366.97;5040725;28;20421;-80
2021/01/30 11:39:37;;;;;;;15.30;8.07;;;;;;;0.02;100.00;96357.41;5043685;28;20076;-80
2021/01/30 11:42:05;;;;;;;16.63;9.35;;;;;;;-0.05;100.00;96375.53;5025296;28;20133;-81
2021/01/30 11:44:31;;;;;;;19.55;9.77;;;;;;;-0.06;100.00;96382.75;5042671;28;20041;-78
2021/01/30 11:46:57;;;;;;;22.23;10.45;;;;;;;-0.20;100.00;96379.09;5006726;28;20087;-82
2021/01/30 11:49:27;;;;;;;24.00;10.82;;;;;;;-0.17;100.00;96388.41;5010824;28;20073;-82
2021/01/30 11:51:55;;;;;;;20.85;10.90;;;;;;;-0.06;100.00;96400.56;5039191;28;20049;-82
2021/01/30 11:54:21;;;;;;;19.63;10.48;;;;;;;-0.22;100.00;96391.09;5034626;28;20041;-78